NCAR-RAP Real-Time Weather Data

Output produced by METARs form (17 September 2019  17:05 UTC)
found at http://weather.rap.ucar.edu/surface/
 
KCLT 171652Z VRB05KT 10SM SCT095 SCT250 32/19 A3001 RMK AO2 SLP151 T03220189
KCLT 171552Z 05005KT 10SM SCT095 31/19 A3002 RMK AO2 SLP154 T03110189
KCLT 171452Z 00000KT 10SM FEW090 BKN100 28/20 A3002 RMK AO2 SLP157 T02830200 51009
KCLT 171352Z 32004KT 10SM FEW015 SCT100 26/19 A3002 RMK AO2 SLP156 T02610194
KCLT 171252Z 30004KT 8SM BKN090 23/19 A3001 RMK AO2 SLP153 T02280189
KCLT 171152Z 00000KT 7SM SCT095 21/18 A3000 RMK AO2 SLP149 T02110183 10228 20189 53009
KCLT 171052Z 00000KT 9SM BKN090 21/18 A2998 RMK AO2 SLP144 T02060183
KCLT 170952Z 30004KT 10SM CLR 21/18 A2997 RMK AO2 SLP139 T02060183
KCLT 170852Z 00000KT 10SM FEW100 21/18 A2997 RMK AO2 SLP138 T02110183 56007
KCLT 170752Z 15004KT 10SM CLR 21/17 A2997 RMK AO2 SLP139 T02110172
KCLT 170652Z 00000KT 10SM CLR 21/18 A2998 RMK AO2 SLP142 T02060178
KCLT 170552Z 00000KT 10SM FEW100 23/18 A2999 RMK AO2 SLP145 T02280183 10294 20211 58005
KCLT 170452Z 00000KT 10SM FEW100 23/18 A3000 RMK AO2 SLP147 T02330178 403440200
KCLT 170352Z 00000KT 10SM FEW110 22/18 A3000 RMK AO2 SLP151 T02220183
KCLT 170252Z 00000KT 10SM FEW110 26/17 A3001 RMK AO2 SLP151 T02560172 53008
KCLT 170052Z 16004KT 10SM FEW110 28/16 A2998 RMK AO2 SLP144 T02830161
KCLT 162352Z 00000KT 10SM FEW110 FEW250 26/17 A2998 RMK AO2 SLP144 T02610167 10344 20256 56000
KCLT 162252Z 00000KT 10SM FEW075 FEW120 FEW250 31/18 A2998 RMK AO2 SLP143 T03110178
KCLT 162152Z 34005KT 10SM FEW075 FEW250 34/14 A2998 RMK AO2 SLP141 T03390139
KCLT 162052Z 28004KT 10SM FEW075 34/15 A2998 RMK AO2 SLP143 T03440150 56025
KCLT 161952Z 01006KT 10SM FEW070 34/17 A3000 RMK AO2 SLP149 T03390167